createdAt,value
2016-11-27T00:00:31.967Z,0
2016-11-27T00:01:04.282Z,0
2016-11-27T00:01:36.602Z,0
2016-11-27T00:02:08.911Z,0
2016-11-27T00:02:41.235Z,0
2016-11-27T00:03:13.573Z,0
2016-11-27T00:03:45.884Z,0
2016-11-27T00:04:18.193Z,0
2016-11-27T00:04:50.516Z,0
2016-11-27T00:05:22.843Z,0
2016-11-27T00:05:55.161Z,0
2016-11-27T00:06:27.477Z,0
2016-11-27T00:06:59.779Z,0
2016-11-27T00:07:32.097Z,0
2016-11-27T00:08:04.400Z,0
2016-11-27T00:08:36.752Z,0
2016-11-27T00:09:09.064Z,0
2016-11-27T00:09:41.375Z,0
2016-11-27T00:10:13.712Z,0
2016-11-27T00:10:46.026Z,0
2016-11-27T00:11:18.353Z,0
2016-11-27T00:11:50.687Z,0
2016-11-27T00:12:23.019Z,0
2016-11-27T00:12:55.329Z,0
2016-11-27T00:13:27.634Z,0
2016-11-27T00:13:59.941Z,0
2016-11-27T00:14:32.264Z,0
2016-11-27T00:15:04.580Z,0
2016-11-27T00:15:36.928Z,0
2016-11-27T00:16:09.244Z,0
2016-11-27T00:16:41.562Z,0
2016-11-27T00:17:13.890Z,0
2016-11-27T00:17:46.238Z,0
2016-11-27T00:18:18.551Z,0
2016-11-27T00:18:50.856Z,0
2016-11-27T00:19:23.168Z,0
2016-11-27T00:19:55.503Z,0
2016-11-27T00:20:27.825Z,0
2016-11-27T00:21:00.132Z,0
2016-11-27T00:21:32.445Z,0
2016-11-27T00:22:04.789Z,0
2016-11-27T00:22:37.122Z,0
2016-11-27T00:23:09.452Z,0
2016-11-27T00:23:41.760Z,0
2016-11-27T00:24:14.106Z,0
2016-11-27T00:24:46.424Z,0
2016-11-27T00:25:18.744Z,0
2016-11-27T00:25:51.070Z,0
2016-11-27T00:26:23.391Z,0
2016-11-27T00:26:55.719Z,0
2016-11-27T00:27:28.026Z,0
2016-11-27T00:28:00.337Z,0
2016-11-27T00:28:32.660Z,0
2016-11-27T00:29:04.965Z,0
2016-11-27T00:29:37.313Z,0
2016-11-27T00:30:09.613Z,0
2016-11-27T00:30:41.923Z,0
2016-11-27T00:31:14.250Z,0
2016-11-27T00:31:46.577Z,0
2016-11-27T00:32:18.907Z,0
2016-11-27T00:32:51.236Z,0
2016-11-27T00:33:23.536Z,0
2016-11-27T00:33:55.890Z,0
2016-11-27T00:34:28.200Z,0
2016-11-27T00:35:00.505Z,0
2016-11-27T00:35:32.833Z,0
2016-11-27T00:36:05.174Z,0
2016-11-27T00:36:37.494Z,0
2016-11-27T00:37:09.815Z,0
2016-11-27T00:37:42.132Z,0
2016-11-27T00:38:14.430Z,0
2016-11-27T00:38:46.747Z,0
2016-11-27T00:39:19.061Z,0
2016-11-27T00:39:51.383Z,0
2016-11-27T00:40:23.714Z,0
2016-11-27T00:40:56.031Z,0
2016-11-27T00:41:28.340Z,0
2016-11-27T00:42:00.685Z,0
2016-11-27T00:42:33.014Z,0
2016-11-27T00:43:05.334Z,0
2016-11-27T00:43:37.635Z,0
2016-11-27T00:44:09.971Z,0
2016-11-27T00:44:42.300Z,0
2016-11-27T00:45:14.638Z,0
2016-11-27T00:45:46.949Z,0
2016-11-27T00:46:19.275Z,0
2016-11-27T00:46:51.587Z,0
2016-11-27T00:47:23.892Z,0
2016-11-27T00:47:56.195Z,0
2016-11-27T00:48:28.504Z,0
2016-11-27T00:49:00.816Z,0
2016-11-27T00:49:33.128Z,0
2016-11-27T00:50:05.460Z,0
2016-11-27T00:50:37.787Z,0
2016-11-27T00:51:10.110Z,0
2016-11-27T00:51:42.398Z,0
2016-11-27T00:52:14.742Z,0
2016-11-27T00:52:47.063Z,0
2016-11-27T00:53:19.371Z,0
2016-11-27T00:53:51.680Z,0
2016-11-27T00:54:23.985Z,0
2016-11-27T00:54:56.306Z,0
2016-11-27T00:55:28.602Z,0
2016-11-27T00:56:00.921Z,0
2016-11-27T00:56:33.242Z,0
2016-11-27T00:57:05.601Z,0
2016-11-27T00:57:37.917Z,0
2016-11-27T00:58:10.241Z,0
2016-11-27T00:58:42.563Z,0
2016-11-27T00:59:14.889Z,0
2016-11-27T00:59:47.209Z,0
2016-11-27T01:00:19.521Z,0
2016-11-27T01:00:51.841Z,0
2016-11-27T01:01:24.166Z,0
2016-11-27T01:01:56.499Z,0
2016-11-27T01:02:28.795Z,0
2016-11-27T01:03:01.102Z,0
2016-11-27T01:03:33.408Z,0
2016-11-27T01:04:05.724Z,0
2016-11-27T01:04:38.034Z,0
2016-11-27T01:05:10.347Z,0
2016-11-27T01:05:42.669Z,0
2016-11-27T01:06:14.995Z,0
2016-11-27T01:06:47.321Z,0
2016-11-27T01:07:19.635Z,0
2016-11-27T01:07:51.951Z,0
2016-11-27T01:08:24.258Z,0
2016-11-27T01:08:56.582Z,0
2016-11-27T01:09:28.892Z,0
2016-11-27T01:10:01.207Z,0
2016-11-27T01:10:33.530Z,0
2016-11-27T01:11:05.861Z,0
2016-11-27T01:11:38.172Z,0
2016-11-27T01:12:10.483Z,0
2016-11-27T01:12:42.798Z,0
2016-11-27T01:13:15.120Z,0
2016-11-27T01:13:47.459Z,0
2016-11-27T01:14:19.763Z,0
2016-11-27T01:14:52.094Z,0
2016-11-27T01:15:24.398Z,0
2016-11-27T01:15:56.721Z,0
2016-11-27T01:16:29.056Z,0
2016-11-27T01:17:01.379Z,0
2016-11-27T01:17:33.692Z,0
2016-11-27T01:18:05.999Z,0
2016-11-27T01:18:38.348Z,0
2016-11-27T01:19:10.664Z,0
2016-11-27T01:19:42.971Z,0
2016-11-27T01:20:15.302Z,0
2016-11-27T01:20:47.619Z,0
2016-11-27T01:21:19.924Z,0
2016-11-27T01:21:52.252Z,0
2016-11-27T01:22:24.559Z,0
2016-11-27T01:22:56.893Z,0
2016-11-27T01:23:29.215Z,0
2016-11-27T01:24:01.528Z,0
2016-11-27T01:24:33.838Z,0
2016-11-27T01:25:06.153Z,0
2016-11-27T01:25:38.491Z,0
2016-11-27T01:26:10.813Z,0
2016-11-27T01:26:43.126Z,0
2016-11-27T01:27:15.432Z,0
2016-11-27T01:27:47.755Z,0
2016-11-27T01:28:20.083Z,0
2016-11-27T01:28:52.401Z,0
2016-11-27T01:29:24.712Z,0
2016-11-27T01:29:57.028Z,0
2016-11-27T01:30:29.355Z,0
2016-11-27T01:31:01.674Z,0
2016-11-27T01:31:34.005Z,0
2016-11-27T01:32:06.326Z,0
2016-11-27T01:32:38.651Z,0
2016-11-27T01:33:11.013Z,0
2016-11-27T01:33:43.334Z,0
2016-11-27T01:34:15.669Z,0
2016-11-27T01:34:47.989Z,0
2016-11-27T01:35:20.370Z,0
2016-11-27T01:35:52.700Z,0
2016-11-27T01:36:25.018Z,0
2016-11-27T01:36:57.323Z,0
2016-11-27T01:37:29.649Z,0
2016-11-27T01:38:01.975Z,0
2016-11-27T01:38:34.320Z,0
2016-11-27T01:39:06.644Z,0
2016-11-27T01:39:38.968Z,0
2016-11-27T01:40:11.291Z,0
2016-11-27T01:40:43.596Z,0
2016-11-27T01:41:15.934Z,0
2016-11-27T01:41:48.262Z,0
2016-11-27T01:42:20.581Z,0
2016-11-27T01:42:52.896Z,0
2016-11-27T01:43:25.221Z,0
2016-11-27T01:43:57.548Z,0
2016-11-27T01:44:29.857Z,0
2016-11-27T01:45:02.182Z,0
2016-11-27T01:45:34.484Z,0
2016-11-27T01:46:06.802Z,0
2016-11-27T01:46:39.136Z,0
2016-11-27T01:47:11.463Z,0
2016-11-27T01:47:43.775Z,0
2016-11-27T01:48:16.060Z,0
2016-11-27T01:48:48.371Z,0
2016-11-27T01:49:20.686Z,0
2016-11-27T01:49:52.985Z,0
2016-11-27T01:50:25.322Z,0
2016-11-27T01:50:57.660Z,0
2016-11-27T01:51:30.002Z,0
2016-11-27T01:52:02.314Z,0
2016-11-27T01:52:34.625Z,0
2016-11-27T01:53:06.931Z,0
2016-11-27T01:53:39.258Z,0
2016-11-27T01:54:11.601Z,0
2016-11-27T01:54:43.909Z,0
2016-11-27T01:55:16.239Z,0
2016-11-27T01:55:48.554Z,0
2016-11-27T01:56:20.868Z,0
2016-11-27T01:56:53.185Z,0
2016-11-27T01:57:25.522Z,0
2016-11-27T01:57:57.850Z,0
2016-11-27T01:58:30.157Z,0
2016-11-27T01:59:02.474Z,0
2016-11-27T01:59:34.808Z,0
2016-11-27T02:00:07.125Z,0
2016-11-27T02:00:39.441Z,0
2016-11-27T02:01:11.785Z,0
2016-11-27T02:01:44.109Z,0
2016-11-27T02:02:16.407Z,0
2016-11-27T02:02:48.731Z,0
2016-11-27T02:03:21.027Z,0
2016-11-27T02:03:53.340Z,0
2016-11-27T02:04:25.684Z,0
2016-11-27T02:04:58.015Z,0
2016-11-27T02:05:30.329Z,0
2016-11-27T02:06:02.655Z,0
2016-11-27T02:06:34.985Z,0
2016-11-27T02:07:07.316Z,0
2016-11-27T02:07:39.637Z,0
2016-11-27T02:08:11.996Z,0
2016-11-27T02:08:44.344Z,0
2016-11-27T02:09:16.638Z,0
2016-11-27T02:09:48.966Z,0
2016-11-27T02:10:21.293Z,0
2016-11-27T02:10:53.635Z,0
2016-11-27T02:11:25.953Z,0
2016-11-27T02:11:58.262Z,0
2016-11-27T02:12:30.567Z,0
2016-11-27T02:13:02.888Z,0
2016-11-27T02:13:35.198Z,0
2016-11-27T02:14:07.516Z,0
2016-11-27T02:14:39.829Z,0
2016-11-27T02:15:12.138Z,0
2016-11-27T02:15:44.477Z,0
2016-11-27T02:16:16.783Z,0
2016-11-27T02:16:49.103Z,0
2016-11-27T02:17:21.465Z,0
2016-11-27T02:17:53.774Z,0
2016-11-27T02:18:26.083Z,0
2016-11-27T02:18:58.406Z,0
2016-11-27T02:19:30.704Z,0
2016-11-27T02:20:03.025Z,0
2016-11-27T02:20:35.339Z,0
2016-11-27T02:21:07.644Z,0
2016-11-27T02:21:39.933Z,0
2016-11-27T02:22:12.242Z,0
2016-11-27T02:22:44.589Z,0
2016-11-27T02:23:16.912Z,0
2016-11-27T02:23:49.238Z,0
2016-11-27T02:24:21.573Z,0
2016-11-27T02:24:53.883Z,0
2016-11-27T02:25:26.193Z,0
2016-11-27T02:25:58.509Z,0
2016-11-27T02:26:30.824Z,0
2016-11-27T02:27:03.133Z,0
2016-11-27T02:27:35.478Z,0
2016-11-27T02:28:07.800Z,0
2016-11-27T02:28:40.129Z,0
2016-11-27T02:29:12.453Z,0
2016-11-27T02:29:44.767Z,0
2016-11-27T02:30:17.118Z,0
2016-11-27T02:30:49.425Z,0
2016-11-27T02:31:21.757Z,0
2016-11-27T02:31:54.076Z,0
2016-11-27T02:32:26.404Z,0
2016-11-27T02:32:58.719Z,0
2016-11-27T02:33:31.015Z,0
2016-11-27T02:34:03.346Z,0
2016-11-27T02:34:35.666Z,0
2016-11-27T02:35:07.987Z,0
2016-11-27T02:35:40.309Z,0
2016-11-27T02:36:12.619Z,0
2016-11-27T02:36:44.939Z,0
2016-11-27T02:37:17.250Z,0
2016-11-27T02:37:49.561Z,0
2016-11-27T02:38:21.864Z,0
2016-11-27T02:38:54.167Z,0
2016-11-27T02:39:26.478Z,0
2016-11-27T02:39:58.806Z,0
2016-11-27T02:40:31.119Z,0
2016-11-27T02:41:03.437Z,0
2016-11-27T02:41:35.749Z,0
2016-11-27T02:42:08.060Z,0
2016-11-27T02:42:40.392Z,0
2016-11-27T02:43:12.752Z,0
2016-11-27T02:43:45.078Z,0
2016-11-27T02:44:17.396Z,0
2016-11-27T02:44:49.716Z,0
2016-11-27T02:45:22.014Z,0
2016-11-27T02:45:54.348Z,0
2016-11-27T02:46:26.663Z,0
2016-11-27T02:46:58.982Z,0
2016-11-27T02:47:31.293Z,0
2016-11-27T02:48:03.596Z,0
2016-11-27T02:48:35.916Z,0
2016-11-27T02:49:08.275Z,0
2016-11-27T02:49:40.587Z,0
2016-11-27T02:50:12.920Z,0
2016-11-27T02:50:45.291Z,0
2016-11-27T02:51:17.609Z,0
2016-11-27T02:51:49.921Z,0
2016-11-27T02:52:22.226Z,0
2016-11-27T02:52:54.543Z,0
2016-11-27T02:53:26.855Z,0
2016-11-27T02:53:59.169Z,0
2016-11-27T02:54:31.488Z,0
2016-11-27T02:55:03.822Z,0
2016-11-27T02:55:36.158Z,0
2016-11-27T02:56:08.470Z,0
2016-11-27T02:56:40.809Z,0
2016-11-27T02:57:13.131Z,0
2016-11-27T02:57:45.432Z,0
2016-11-27T02:58:17.746Z,0
2016-11-27T02:58:50.088Z,0
2016-11-27T02:59:22.412Z,0
2016-11-27T02:59:54.742Z,0
2016-11-27T03:00:27.039Z,0
2016-11-27T03:00:59.374Z,0
2016-11-27T03:01:31.721Z,0
2016-11-27T03:02:04.047Z,0
2016-11-27T03:02:36.413Z,0
2016-11-27T03:03:08.736Z,0
2016-11-27T03:03:41.070Z,0
2016-11-27T03:04:13.387Z,0
2016-11-27T03:04:45.696Z,0
2016-11-27T03:05:18.001Z,0
2016-11-27T03:05:50.287Z,0
2016-11-27T03:06:22.588Z,0
2016-11-27T03:06:54.902Z,0
2016-11-27T03:07:27.216Z,0
2016-11-27T03:07:59.534Z,0
2016-11-27T03:08:31.867Z,0
2016-11-27T03:09:04.204Z,0
2016-11-27T03:09:36.523Z,0
2016-11-27T03:10:08.844Z,0
2016-11-27T03:10:41.155Z,0
2016-11-27T03:11:13.465Z,0
2016-11-27T03:11:45.758Z,0
2016-11-27T03:12:18.059Z,0
2016-11-27T03:12:50.379Z,0
2016-11-27T03:13:22.712Z,0
2016-11-27T03:13:55.036Z,0
2016-11-27T03:14:27.372Z,0
2016-11-27T03:14:59.682Z,0
2016-11-27T03:15:32.012Z,0
2016-11-27T03:16:04.311Z,0
2016-11-27T03:16:36.641Z,0
2016-11-27T03:17:08.971Z,0
2016-11-27T03:17:41.282Z,0
2016-11-27T03:18:13.584Z,0
2016-11-27T03:18:45.908Z,0
2016-11-27T03:19:18.235Z,0
2016-11-27T03:19:50.547Z,0
2016-11-27T03:20:22.842Z,0
2016-11-27T03:20:55.202Z,0
2016-11-27T03:21:27.536Z,0
2016-11-27T03:21:59.858Z,0
2016-11-27T03:22:32.174Z,0
2016-11-27T03:23:04.491Z,0
2016-11-27T03:23:36.828Z,0
2016-11-27T03:24:09.128Z,0
2016-11-27T03:24:41.444Z,0
2016-11-27T03:25:13.771Z,0
2016-11-27T03:25:46.086Z,0
2016-11-27T03:26:18.416Z,0
2016-11-27T03:26:50.768Z,0
2016-11-27T03:27:23.096Z,0
2016-11-27T03:27:55.415Z,0
2016-11-27T03:28:27.719Z,0
2016-11-27T03:29:00.030Z,0
2016-11-27T03:29:32.360Z,0
2016-11-27T03:30:04.688Z,0
2016-11-27T03:30:37.010Z,0
2016-11-27T03:31:09.328Z,0
2016-11-27T03:31:41.653Z,0
2016-11-27T03:32:13.974Z,0
2016-11-27T03:32:46.274Z,0
2016-11-27T03:33:18.587Z,0
2016-11-27T03:33:50.905Z,0
2016-11-27T03:34:23.243Z,0
2016-11-27T03:34:55.544Z,0
2016-11-27T03:35:27.864Z,0
2016-11-27T03:36:00.183Z,0
2016-11-27T03:36:32.499Z,0
2016-11-27T03:37:04.823Z,0
2016-11-27T03:37:37.151Z,0
2016-11-27T03:38:09.466Z,0
2016-11-27T03:38:41.785Z,0
2016-11-27T03:39:14.120Z,0
2016-11-27T03:39:47.094Z,0
2016-11-27T03:40:19.423Z,0
2016-11-27T03:40:51.744Z,0
2016-11-27T03:41:24.059Z,0
2016-11-27T03:41:56.381Z,0
2016-11-27T03:42:28.704Z,0
2016-11-27T03:43:01.013Z,0
2016-11-27T03:43:33.335Z,0
2016-11-27T03:44:05.656Z,0
2016-11-27T03:44:37.986Z,0
2016-11-27T03:45:10.308Z,0
2016-11-27T03:45:42.637Z,0
2016-11-27T03:46:14.962Z,0
2016-11-27T03:46:47.282Z,0
2016-11-27T03:47:19.596Z,0
2016-11-27T03:47:51.907Z,0
2016-11-27T03:48:24.229Z,0
2016-11-27T03:48:56.551Z,0
2016-11-27T03:49:28.913Z,0
2016-11-27T03:50:01.223Z,0
2016-11-27T03:50:33.540Z,0
2016-11-27T03:51:05.879Z,0
2016-11-27T03:51:38.192Z,0
2016-11-27T03:52:10.521Z,0
2016-11-27T03:52:42.840Z,0
2016-11-27T03:53:15.153Z,0
2016-11-27T03:53:47.468Z,0
2016-11-27T03:54:19.779Z,0
2016-11-27T03:54:52.133Z,0
2016-11-27T03:55:24.452Z,0
2016-11-27T03:55:56.757Z,0
2016-11-27T03:56:29.077Z,0
2016-11-27T03:57:01.401Z,0
2016-11-27T03:57:33.732Z,0
2016-11-27T03:58:06.050Z,0
2016-11-27T03:58:38.363Z,0
2016-11-27T03:59:10.682Z,0
2016-11-27T03:59:43.063Z,0
2016-11-27T04:00:15.383Z,0
2016-11-27T04:00:47.703Z,0
2016-11-27T04:01:20.012Z,0
2016-11-27T04:01:52.342Z,0
2016-11-27T04:02:24.687Z,0
2016-11-27T04:02:56.997Z,0
2016-11-27T04:03:29.318Z,0
2016-11-27T04:04:01.618Z,0
2016-11-27T04:04:33.939Z,0
2016-11-27T04:05:06.274Z,0
2016-11-27T04:05:38.591Z,0
2016-11-27T04:06:10.915Z,0
2016-11-27T04:06:43.248Z,0
2016-11-27T04:07:15.577Z,0
2016-11-27T04:07:47.881Z,0
2016-11-27T04:08:20.222Z,0
2016-11-27T04:08:52.534Z,0
2016-11-27T04:09:24.858Z,0
2016-11-27T04:09:57.157Z,0
2016-11-27T04:10:29.501Z,0
2016-11-27T04:11:01.803Z,0
2016-11-27T04:11:34.133Z,0
2016-11-27T04:12:06.453Z,0
2016-11-27T04:12:38.783Z,0
2016-11-27T04:13:11.106Z,0
2016-11-27T04:13:43.422Z,0
2016-11-27T04:14:15.737Z,0
2016-11-27T04:14:48.041Z,0
2016-11-27T04:15:20.397Z,0
2016-11-27T04:15:52.709Z,0
2016-11-27T04:16:25.016Z,0
2016-11-27T04:16:57.328Z,0
2016-11-27T04:17:29.626Z,0
2016-11-27T04:18:01.928Z,0
2016-11-27T04:18:34.250Z,0
2016-11-27T04:19:06.579Z,0
2016-11-27T04:19:38.890Z,0
2016-11-27T04:20:11.237Z,0
2016-11-27T04:20:43.550Z,0
2016-11-27T04:21:15.877Z,0
2016-11-27T04:21:48.196Z,0
2016-11-27T04:22:20.513Z,0
2016-11-27T04:22:52.835Z,0
2016-11-27T04:23:25.153Z,0
2016-11-27T04:23:57.477Z,0
2016-11-27T04:24:29.804Z,0
2016-11-27T04:25:02.112Z,0
2016-11-27T04:25:34.422Z,0
2016-11-27T04:26:06.733Z,0
2016-11-27T04:26:39.060Z,0
2016-11-27T04:27:11.377Z,0
2016-11-27T04:27:43.703Z,0
2016-11-27T04:28:16.031Z,0
2016-11-27T04:28:48.349Z,0
2016-11-27T04:29:20.675Z,0
2016-11-27T04:29:52.985Z,0
2016-11-27T04:30:25.291Z,0
2016-11-27T04:30:57.629Z,0
2016-11-27T04:31:29.955Z,0
2016-11-27T04:32:02.287Z,0
2016-11-27T04:32:34.618Z,0
2016-11-27T04:33:06.987Z,0
2016-11-27T04:33:39.300Z,0
2016-11-27T04:34:11.614Z,0
2016-11-27T04:34:43.942Z,0
2016-11-27T04:35:16.265Z,0
2016-11-27T04:35:48.598Z,0
2016-11-27T04:36:20.916Z,0
2016-11-27T04:36:53.256Z,0
2016-11-27T04:37:25.563Z,0
2016-11-27T04:37:57.877Z,0
2016-11-27T04:38:30.180Z,0
2016-11-27T04:39:02.501Z,0
2016-11-27T04:39:34.802Z,0
2016-11-27T04:40:07.107Z,0
2016-11-27T04:40:39.432Z,0
2016-11-27T04:41:11.778Z,0
2016-11-27T04:41:44.081Z,0
2016-11-27T04:42:16.404Z,0
2016-11-27T04:42:48.748Z,0
2016-11-27T04:43:21.095Z,0
2016-11-27T04:43:53.418Z,0
2016-11-27T04:44:25.742Z,0
2016-11-27T04:44:58.100Z,0
2016-11-27T04:45:30.410Z,0
2016-11-27T04:46:02.737Z,0
2016-11-27T04:46:35.052Z,0
2016-11-27T04:47:07.375Z,0
2016-11-27T04:47:39.691Z,0
2016-11-27T04:48:12.052Z,0
2016-11-27T04:48:44.374Z,0
2016-11-27T04:49:16.700Z,0
2016-11-27T04:49:49.003Z,0
2016-11-27T04:50:21.330Z,0
2016-11-27T04:50:53.616Z,0
2016-11-27T04:51:25.925Z,0
2016-11-27T04:51:58.238Z,0
2016-11-27T04:52:30.565Z,0
2016-11-27T04:53:02.871Z,0
2016-11-27T04:53:35.221Z,0
2016-11-27T04:54:07.538Z,0
2016-11-27T04:54:39.853Z,0
2016-11-27T04:55:12.172Z,0
2016-11-27T04:55:44.482Z,0
2016-11-27T04:56:16.798Z,0
2016-11-27T04:56:49.106Z,0
2016-11-27T04:57:21.437Z,0
2016-11-27T04:57:53.742Z,0
2016-11-27T04:58:26.045Z,0
2016-11-27T04:58:58.374Z,0
2016-11-27T04:59:30.704Z,0
2016-11-27T05:00:03.019Z,0
2016-11-27T05:00:35.328Z,0
2016-11-27T05:01:07.631Z,0
2016-11-27T05:01:39.957Z,0
2016-11-27T05:02:12.261Z,0
2016-11-27T05:02:44.580Z,0
2016-11-27T05:03:16.879Z,0
2016-11-27T05:03:49.231Z,0
2016-11-27T05:04:21.534Z,0
2016-11-27T05:04:53.842Z,0
2016-11-27T05:05:26.150Z,0
2016-11-27T05:05:58.464Z,0
2016-11-27T05:06:30.772Z,0
2016-11-27T05:07:03.100Z,0
2016-11-27T05:07:35.430Z,0
2016-11-27T05:08:07.741Z,0
2016-11-27T05:08:40.068Z,0
2016-11-27T05:09:12.392Z,0
2016-11-27T05:09:44.697Z,0
2016-11-27T05:10:17.015Z,0
2016-11-27T05:10:50.103Z,0
2016-11-27T05:11:22.431Z,0
2016-11-27T05:11:54.786Z,0
2016-11-27T05:12:27.110Z,0
2016-11-27T05:12:59.475Z,0
2016-11-27T05:13:31.797Z,0
2016-11-27T05:14:04.112Z,0
2016-11-27T05:14:36.427Z,0
2016-11-27T05:15:08.772Z,0
2016-11-27T05:15:41.108Z,0
2016-11-27T05:16:13.421Z,0
2016-11-27T05:16:45.715Z,0
2016-11-27T05:17:18.033Z,0
2016-11-27T05:17:50.340Z,0
2016-11-27T05:18:22.651Z,0
2016-11-27T05:18:54.975Z,0
2016-11-27T05:19:27.285Z,0
2016-11-27T05:19:59.601Z,0
2016-11-27T05:20:31.922Z,0
2016-11-27T05:21:04.257Z,0
2016-11-27T05:21:36.574Z,0
2016-11-27T05:22:08.896Z,0
2016-11-27T05:22:41.252Z,0
2016-11-27T05:23:13.577Z,0
2016-11-27T05:23:45.888Z,0
2016-11-27T05:24:18.193Z,0
2016-11-27T05:24:50.514Z,0
2016-11-27T05:25:22.830Z,0
2016-11-27T05:25:55.145Z,0
2016-11-27T05:26:27.461Z,0
2016-11-27T05:26:59.765Z,0
2016-11-27T05:27:32.095Z,0
2016-11-27T05:28:04.418Z,0
2016-11-27T05:28:36.725Z,0
2016-11-27T05:29:09.082Z,0
2016-11-27T05:29:41.405Z,0
2016-11-27T05:30:13.698Z,0
2016-11-27T05:30:46.011Z,0
2016-11-27T05:31:18.331Z,0
2016-11-27T05:31:50.640Z,0
2016-11-27T05:32:22.944Z,0
2016-11-27T05:32:55.275Z,0
2016-11-27T05:33:27.587Z,0
2016-11-27T05:33:59.921Z,0
2016-11-27T05:34:32.239Z,0
2016-11-27T05:35:04.565Z,0
2016-11-27T05:35:36.878Z,0
2016-11-27T05:36:09.204Z,0
2016-11-27T05:36:41.547Z,0
2016-11-27T05:37:13.901Z,0
2016-11-27T05:37:46.234Z,0
2016-11-27T05:38:18.544Z,0
2016-11-27T05:38:50.866Z,0
2016-11-27T05:39:23.168Z,0
2016-11-27T05:39:55.473Z,0
2016-11-27T05:40:27.788Z,0
2016-11-27T05:41:00.121Z,0
2016-11-27T05:41:32.434Z,0
2016-11-27T05:42:04.743Z,0
2016-11-27T05:42:37.059Z,0
2016-11-27T05:43:09.385Z,0
2016-11-27T05:43:41.712Z,0
2016-11-27T05:44:14.033Z,0
2016-11-27T05:44:46.347Z,0
2016-11-27T05:45:18.689Z,0
2016-11-27T05:45:51.026Z,0
2016-11-27T05:46:23.328Z,0
2016-11-27T05:46:55.644Z,0
2016-11-27T05:47:27.956Z,0
2016-11-27T05:48:00.284Z,0
2016-11-27T05:48:32.619Z,0
2016-11-27T05:49:04.930Z,0
2016-11-27T05:49:37.252Z,0
2016-11-27T05:50:09.579Z,0
2016-11-27T05:50:41.898Z,0
2016-11-27T05:51:14.221Z,0
2016-11-27T05:51:46.534Z,0
2016-11-27T05:52:18.849Z,0
2016-11-27T05:52:51.164Z,0
2016-11-27T05:53:23.499Z,0
2016-11-27T05:53:55.817Z,0
2016-11-27T05:54:28.166Z,0
2016-11-27T05:55:00.485Z,0
2016-11-27T05:55:32.795Z,0
2016-11-27T05:56:05.172Z,0
2016-11-27T05:56:37.505Z,0
2016-11-27T05:57:09.817Z,0
2016-11-27T05:57:42.139Z,0
2016-11-27T05:58:14.460Z,0
2016-11-27T05:58:46.782Z,0
2016-11-27T05:59:19.082Z,0
2016-11-27T05:59:51.388Z,0
2016-11-27T06:00:23.718Z,0
2016-11-27T06:00:56.090Z,0
2016-11-27T06:01:28.421Z,0
2016-11-27T06:02:00.744Z,0
2016-11-27T06:02:33.061Z,0
2016-11-27T06:03:05.365Z,0
2016-11-27T06:03:37.687Z,0
2016-11-27T06:04:10.008Z,0
2016-11-27T06:04:42.330Z,0
2016-11-27T06:05:14.649Z,0
2016-11-27T06:05:46.975Z,0
2016-11-27T06:06:19.309Z,0
2016-11-27T06:06:51.615Z,0
2016-11-27T06:07:23.964Z,0
2016-11-27T06:07:56.292Z,0
2016-11-27T06:08:28.618Z,0
2016-11-27T06:09:00.952Z,0
2016-11-27T06:09:33.274Z,0
2016-11-27T06:10:05.604Z,0
2016-11-27T06:10:37.905Z,0
2016-11-27T06:11:10.219Z,0
2016-11-27T06:11:42.522Z,0
2016-11-27T06:12:14.843Z,0
2016-11-27T06:12:47.159Z,0
2016-11-27T06:13:19.476Z,0
2016-11-27T06:13:51.793Z,0
2016-11-27T06:14:24.097Z,0
2016-11-27T06:14:56.411Z,0
2016-11-27T06:15:28.725Z,0
2016-11-27T06:16:01.033Z,0
2016-11-27T06:16:33.344Z,0
2016-11-27T06:17:05.665Z,0
2016-11-27T06:17:37.963Z,0
2016-11-27T06:18:10.284Z,0
2016-11-27T06:18:42.599Z,0
2016-11-27T06:19:14.939Z,0
2016-11-27T06:19:47.245Z,0
2016-11-27T06:20:19.551Z,0
2016-11-27T06:20:51.883Z,0
2016-11-27T06:21:24.223Z,0
2016-11-27T06:21:56.535Z,0
2016-11-27T06:22:28.855Z,0
2016-11-27T06:23:01.179Z,0
2016-11-27T06:23:33.521Z,0
2016-11-27T06:24:05.823Z,0
2016-11-27T06:24:38.149Z,0
2016-11-27T06:25:10.458Z,0
2016-11-27T06:25:42.771Z,0
2016-11-27T06:26:15.094Z,0
2016-11-27T06:26:47.416Z,0
2016-11-27T06:27:19.737Z,0
2016-11-27T06:27:52.048Z,0
2016-11-27T06:28:24.370Z,0
2016-11-27T06:28:56.689Z,0
2016-11-27T06:29:29.029Z,0
2016-11-27T06:30:01.340Z,0
2016-11-27T06:30:33.634Z,0
2016-11-27T06:31:05.968Z,0
2016-11-27T06:31:38.267Z,0
2016-11-27T06:32:10.587Z,0
2016-11-27T06:32:42.914Z,0
2016-11-27T06:33:15.241Z,0
2016-11-27T06:33:47.575Z,0
2016-11-27T06:34:19.891Z,0
2016-11-27T06:34:52.201Z,0
2016-11-27T06:35:24.559Z,0
2016-11-27T06:35:56.862Z,0
2016-11-27T06:36:29.193Z,0
2016-11-27T06:37:01.484Z,0
2016-11-27T06:37:33.812Z,0
2016-11-27T06:38:06.143Z,0
2016-11-27T06:38:38.471Z,0
2016-11-27T06:39:10.798Z,0
2016-11-27T06:39:43.114Z,0
2016-11-27T06:40:15.432Z,0
2016-11-27T06:40:47.761Z,0
2016-11-27T06:41:20.084Z,0
2016-11-27T06:41:52.402Z,0
2016-11-27T06:42:24.724Z,0
2016-11-27T06:42:57.059Z,4
2016-11-27T06:43:29.363Z,4
2016-11-27T06:44:01.677Z,4
2016-11-27T06:44:34.012Z,4
2016-11-27T06:45:06.318Z,4
2016-11-27T06:45:38.630Z,4
2016-11-27T06:46:10.927Z,4
2016-11-27T06:46:43.272Z,4
2016-11-27T06:47:15.590Z,4
2016-11-27T06:47:47.916Z,4
2016-11-27T06:48:20.246Z,0
2016-11-27T06:48:52.552Z,4
2016-11-27T06:49:24.869Z,4
2016-11-27T06:49:57.182Z,4
2016-11-27T06:50:29.494Z,4
2016-11-27T06:51:01.802Z,8
2016-11-27T06:51:34.120Z,4
2016-11-27T06:52:06.458Z,8
2016-11-27T06:52:38.768Z,8
2016-11-27T06:53:11.084Z,8
2016-11-27T06:53:43.398Z,8
2016-11-27T06:54:15.733Z,12
2016-11-27T06:54:48.049Z,8
2016-11-27T06:55:20.379Z,12
2016-11-27T06:55:52.685Z,16
2016-11-27T06:56:24.999Z,12
2016-11-27T06:56:57.305Z,16
2016-11-27T06:57:29.629Z,16
2016-11-27T06:58:01.945Z,16
2016-11-27T06:58:34.262Z,20
2016-11-27T06:59:06.583Z,20
2016-11-27T06:59:38.898Z,20
2016-11-27T07:00:11.215Z,20
2016-11-27T07:00:43.544Z,20
2016-11-27T07:01:15.868Z,24
2016-11-27T07:01:48.215Z,24
2016-11-27T07:02:20.538Z,28
2016-11-27T07:02:52.851Z,28
2016-11-27T07:03:25.161Z,28
2016-11-27T07:03:57.483Z,28
2016-11-27T07:04:29.804Z,28
2016-11-27T07:05:02.106Z,28
2016-11-27T07:05:34.417Z,28
2016-11-27T07:06:06.711Z,28
2016-11-27T07:06:39.038Z,28
2016-11-27T07:07:11.338Z,28
2016-11-27T07:07:43.658Z,32
2016-11-27T07:08:15.975Z,32
2016-11-27T07:08:48.311Z,32
2016-11-27T07:09:20.641Z,36
2016-11-27T07:09:52.963Z,36
2016-11-27T07:10:25.266Z,40
2016-11-27T07:10:57.583Z,40
2016-11-27T07:11:29.905Z,44
2016-11-27T07:12:02.229Z,44
2016-11-27T07:12:34.553Z,40
2016-11-27T07:13:06.851Z,40
2016-11-27T07:13:39.185Z,40
2016-11-27T07:14:11.505Z,40
2016-11-27T07:14:43.860Z,44
2016-11-27T07:15:16.175Z,44
2016-11-27T07:15:48.474Z,48
2016-11-27T07:16:20.774Z,52
2016-11-27T07:16:53.091Z,56
2016-11-27T07:17:25.414Z,60
2016-11-27T07:17:57.741Z,64
2016-11-27T07:18:30.071Z,68
2016-11-27T07:19:02.394Z,76
2016-11-27T07:19:34.712Z,80
2016-11-27T07:20:07.008Z,84
2016-11-27T07:20:39.325Z,88
2016-11-27T07:21:11.649Z,92
2016-11-27T07:21:43.978Z,96
2016-11-27T07:22:16.296Z,100
2016-11-27T07:22:48.601Z,96
2016-11-27T07:23:20.916Z,92
2016-11-27T07:23:53.235Z,92
2016-11-27T07:24:25.558Z,92
2016-11-27T07:24:57.868Z,88
2016-11-27T07:25:30.206Z,88
2016-11-27T07:26:02.535Z,88
2016-11-27T07:26:34.852Z,88
2016-11-27T07:27:07.156Z,88
2016-11-27T07:27:39.488Z,96
2016-11-27T07:28:11.810Z,100
2016-11-27T07:28:44.177Z,108
2016-11-27T07:29:16.512Z,116
2016-11-27T07:29:48.827Z,124
2016-11-27T07:30:21.128Z,140
2016-11-27T07:30:53.448Z,152
2016-11-27T07:31:25.775Z,160
2016-11-27T07:31:58.102Z,168
2016-11-27T07:32:30.414Z,176
2016-11-27T07:33:02.731Z,184
2016-11-27T07:33:35.047Z,184
2016-11-27T07:34:07.372Z,192
2016-11-27T07:34:39.700Z,200
2016-11-27T07:35:12.031Z,208
2016-11-27T07:35:44.356Z,220
2016-11-27T07:36:16.674Z,228
2016-11-27T07:36:49.007Z,240
2016-11-27T07:37:21.315Z,252
2016-11-27T07:37:53.636Z,264
2016-11-27T07:38:25.958Z,272
2016-11-27T07:38:58.265Z,284
2016-11-27T07:39:30.609Z,288
2016-11-27T07:40:02.940Z,296
2016-11-27T07:40:35.255Z,300
2016-11-27T07:41:07.581Z,304
2016-11-27T07:41:39.900Z,312
2016-11-27T07:42:12.248Z,324
2016-11-27T07:42:44.589Z,332
2016-11-27T07:43:16.909Z,344
2016-11-27T07:43:49.241Z,348
2016-11-27T07:44:21.573Z,352
2016-11-27T07:44:53.885Z,352
2016-11-27T07:45:26.187Z,352
2016-11-27T07:45:58.524Z,356
2016-11-27T07:46:30.846Z,360
2016-11-27T07:47:03.156Z,364
2016-11-27T07:47:35.496Z,368
2016-11-27T07:48:07.813Z,372
2016-11-27T07:48:40.129Z,368
2016-11-27T07:49:12.445Z,372
2016-11-27T07:49:44.766Z,376
2016-11-27T07:50:17.112Z,380
2016-11-27T07:50:49.420Z,376
2016-11-27T07:51:21.749Z,380
2016-11-27T07:51:54.100Z,384
2016-11-27T07:52:26.423Z,388
2016-11-27T07:52:58.775Z,396
2016-11-27T07:53:31.101Z,400
2016-11-27T07:54:03.393Z,400
2016-11-27T07:54:35.704Z,408
2016-11-27T07:55:08.024Z,408